createdAt,value
2018-06-27T00:01:33.457Z,65.01
2018-06-27T00:04:01.899Z,65.27
2018-06-27T00:06:31.097Z,65.19
2018-06-27T00:08:59.830Z,65.29
2018-06-27T00:11:28.250Z,65.15
2018-06-27T00:13:57.541Z,65.58
2018-06-27T00:16:26.628Z,65.52
2018-06-27T00:18:55.509Z,65.49
2018-06-27T00:21:24.074Z,65.38
2018-06-27T00:23:54.381Z,65.55
2018-06-27T00:26:23.285Z,65.67
2018-06-27T00:28:51.725Z,65.21
2018-06-27T00:31:20.385Z,65.20
2018-06-27T00:33:48.866Z,65.76
2018-06-27T00:36:17.785Z,65.25
2018-06-27T00:38:46.835Z,65.28
2018-06-27T00:41:15.837Z,65.59
2018-06-27T00:43:44.269Z,66.05
2018-06-27T00:46:13.213Z,66.00
2018-06-27T00:48:42.051Z,66.11
2018-06-27T00:51:10.501Z,66.11
2018-06-27T00:53:46.116Z,66.42
2018-06-27T00:56:14.977Z,66.61
2018-06-27T00:58:43.563Z,66.66
2018-06-27T01:01:12.869Z,66.89
2018-06-27T01:03:41.309Z,67.17
2018-06-27T01:06:10.153Z,67.08
2018-06-27T01:08:39.605Z,67.23
2018-06-27T01:11:08.030Z,67.66
2018-06-27T01:13:36.801Z,67.50
2018-06-27T01:16:05.561Z,67.86
2018-06-27T01:18:34.148Z,67.58
2018-06-27T01:21:02.655Z,68.11
2018-06-27T01:23:31.114Z,67.98
2018-06-27T01:26:01.514Z,68.22
2018-06-27T01:28:30.151Z,68.11
2018-06-27T01:30:59.670Z,68.43
2018-06-27T01:33:28.089Z,68.77
2018-06-27T01:35:58.142Z,68.92
2018-06-27T01:38:26.583Z,68.95
2018-06-27T01:40:58.718Z,69.21
2018-06-27T01:43:27.277Z,69.24
2018-06-27T01:45:55.698Z,69.17
2018-06-27T01:48:24.837Z,69.58
2018-06-27T01:50:53.471Z,69.60
2018-06-27T01:53:21.901Z,69.47
2018-06-27T01:55:50.593Z,69.59
2018-06-27T01:58:19.148Z,69.96
2018-06-27T02:00:47.565Z,69.46
2018-06-27T02:03:16.646Z,69.57
2018-06-27T02:05:45.229Z,69.89
2018-06-27T02:08:14.782Z,69.78
2018-06-27T02:10:43.743Z,69.75
2018-06-27T02:13:12.194Z,69.79
2018-06-27T02:15:40.607Z,69.68
2018-06-27T02:18:09.417Z,69.93
2018-06-27T02:20:37.890Z,70.06
2018-06-27T02:23:07.881Z,70.02
2018-06-27T02:25:36.949Z,69.76
2018-06-27T02:28:05.466Z,70.01
2018-06-27T02:30:33.982Z,69.91
2018-06-27T02:33:02.677Z,69.85
2018-06-27T02:35:31.193Z,70.23
2018-06-27T02:37:59.618Z,70.35
2018-06-27T02:40:28.089Z,70.06
2018-06-27T02:42:56.717Z,69.99
2018-06-27T02:45:25.221Z,70.29
2018-06-27T02:47:53.835Z,70.45
2018-06-27T02:50:22.993Z,70.32
2018-06-27T02:52:51.653Z,70.13
2018-06-27T02:55:20.067Z,70.12
2018-06-27T02:57:49.459Z,69.72
2018-06-27T03:00:17.889Z,69.96
2018-06-27T03:02:47.210Z,69.71
2018-06-27T03:05:16.478Z,69.58
2018-06-27T03:07:45.846Z,69.67
2018-06-27T03:10:14.269Z,69.00
2018-06-27T03:12:43.080Z,68.93
2018-06-27T03:15:11.906Z,69.29
2018-06-27T03:17:41.364Z,69.11
2018-06-27T03:20:09.851Z,69.19
2018-06-27T03:22:38.582Z,68.84
2018-06-27T03:25:07.018Z,68.47
2018-06-27T03:27:35.493Z,68.36
2018-06-27T03:30:04.118Z,68.15
2018-06-27T03:32:32.905Z,68.28
2018-06-27T03:35:02.010Z,68.03
2018-06-27T03:37:30.706Z,67.86
2018-06-27T03:39:59.126Z,67.48
2018-06-27T03:42:28.378Z,67.51
2018-06-27T03:44:57.073Z,67.49
2018-06-27T03:47:26.241Z,67.53
2018-06-27T03:49:54.697Z,67.42
2018-06-27T03:52:23.681Z,67.38
2018-06-27T03:54:52.497Z,66.76
2018-06-27T03:57:20.950Z,67.17
2018-06-27T03:59:49.390Z,66.50
2018-06-27T04:02:18.177Z,66.14
2018-06-27T04:04:46.614Z,65.97
2018-06-27T04:07:15.065Z,65.72
2018-06-27T04:09:44.466Z,65.68
2018-06-27T04:12:12.957Z,65.58
2018-06-27T04:14:42.426Z,65.40
2018-06-27T04:17:10.937Z,65.49
2018-06-27T04:19:40.005Z,64.78
2018-06-27T04:22:08.457Z,64.77
2018-06-27T04:27:06.992Z,64.50
2018-06-27T04:29:35.420Z,64.39
2018-06-27T04:32:03.860Z,64.02
2018-06-27T04:34:32.763Z,63.86
2018-06-27T04:37:01.746Z,63.22
2018-06-27T04:39:30.158Z,63.30
2018-06-27T04:42:00.819Z,62.88
2018-06-27T04:44:29.270Z,62.75
2018-06-27T04:46:57.974Z,62.50
2018-06-27T04:49:26.810Z,61.83
2018-06-27T04:51:55.269Z,61.70
2018-06-27T04:54:23.687Z,61.23
2018-06-27T04:56:53.162Z,61.00
2018-06-27T04:59:21.597Z,60.67
2018-06-27T05:01:50.062Z,60.49
2018-06-27T05:04:18.729Z,60.23
2018-06-27T05:06:47.229Z,59.38
2018-06-27T05:09:15.681Z,59.03
2018-06-27T05:11:44.716Z,58.54
2018-06-27T05:14:13.141Z,58.37
2018-06-27T05:16:41.954Z,57.78
2018-06-27T05:19:11.133Z,57.84
2018-06-27T05:21:39.599Z,58.18
2018-06-27T05:24:08.057Z,57.80
2018-06-27T05:26:37.264Z,57.01
2018-06-27T05:29:05.792Z,57.07
2018-06-27T05:31:34.372Z,56.35
2018-06-27T05:34:03.072Z,56.00
2018-06-27T05:36:31.999Z,56.22
2018-06-27T05:39:00.457Z,55.38
2018-06-27T05:41:30.343Z,55.41
2018-06-27T05:43:58.858Z,55.02
2018-06-27T05:46:27.366Z,54.43
2018-06-27T05:48:57.117Z,54.27
2018-06-27T05:51:25.614Z,54.61
2018-06-27T05:53:54.213Z,54.36
2018-06-27T05:56:23.235Z,53.47
2018-06-27T05:58:51.889Z,53.06
2018-06-27T06:01:20.605Z,52.33
2018-06-27T06:03:49.182Z,52.39
2018-06-27T06:06:17.614Z,51.60
2018-06-27T06:08:46.133Z,51.43
2018-06-27T06:11:14.700Z,50.83
2018-06-27T06:13:43.149Z,51.45
2018-06-27T06:16:12.105Z,51.43
2018-06-27T06:18:41.541Z,51.29
2018-06-27T06:21:09.992Z,51.11
2018-06-27T06:23:38.423Z,50.75
2018-06-27T06:26:07.093Z,50.08
2018-06-27T06:28:35.549Z,49.63
2018-06-27T06:31:04.039Z,49.19
2018-06-27T06:33:33.093Z,48.87
2018-06-27T06:36:01.523Z,48.49
2018-06-27T06:38:30.781Z,48.46
2018-06-27T06:40:59.793Z,48.53
2018-06-27T06:43:28.693Z,48.77
2018-06-27T06:45:57.207Z,48.35
2018-06-27T06:48:26.621Z,48.61
2018-06-27T06:50:55.109Z,48.77
2018-06-27T06:53:23.537Z,48.56
2018-06-27T06:55:52.117Z,47.97
2018-06-27T06:58:20.545Z,48.20
2018-06-27T07:00:49.114Z,48.01
2018-06-27T07:03:17.743Z,46.91
2018-06-27T07:05:46.625Z,46.75
2018-06-27T07:08:15.107Z,47.74
2018-06-27T07:10:43.658Z,47.29
2018-06-27T07:13:12.485Z,47.14
2018-06-27T07:15:40.919Z,46.70
2018-06-27T07:18:09.558Z,46.38
2018-06-27T07:20:38.294Z,46.08
2018-06-27T07:23:06.914Z,45.20
2018-06-27T07:25:35.573Z,45.67
2018-06-27T07:28:04.353Z,45.66
2018-06-27T07:30:33.793Z,44.98
2018-06-27T07:33:02.350Z,45.00
2018-06-27T07:35:30.925Z,45.11
2018-06-27T07:38:00.314Z,45.46
2018-06-27T07:40:29.247Z,45.01
2018-06-27T07:42:57.764Z,43.90
2018-06-27T07:45:26.249Z,44.03
2018-06-27T07:47:54.954Z,42.28
2018-06-27T07:50:23.701Z,42.34
2018-06-27T07:52:52.395Z,41.78
2018-06-27T07:55:20.985Z,40.34
2018-06-27T07:57:49.430Z,40.76
2018-06-27T08:00:18.126Z,40.89
2018-06-27T08:02:47.012Z,39.30
2018-06-27T08:05:15.494Z,38.61
2018-06-27T08:07:44.041Z,39.20
2018-06-27T08:10:12.990Z,38.78
2018-06-27T08:12:41.579Z,38.40
2018-06-27T08:15:10.000Z,38.30
2018-06-27T08:17:38.585Z,38.17
2018-06-27T08:20:07.085Z,37.33
2018-06-27T08:22:35.723Z,36.18
2018-06-27T08:25:04.888Z,35.84
2018-06-27T08:27:33.302Z,35.33
2018-06-27T08:30:01.874Z,34.93
2018-06-27T08:32:30.782Z,35.36
2018-06-27T08:34:59.195Z,35.46
2018-06-27T08:37:27.929Z,35.78
2018-06-27T08:39:56.557Z,36.00
2018-06-27T08:42:25.017Z,35.48
2018-06-27T08:44:53.440Z,33.86
2018-06-27T08:47:22.025Z,34.63
2018-06-27T08:49:50.584Z,34.19
2018-06-27T08:52:19.122Z,34.21
2018-06-27T08:54:48.393Z,33.35
2018-06-27T08:57:18.321Z,34.54
2018-06-27T08:59:47.242Z,33.80
2018-06-27T09:02:15.898Z,32.75
2018-06-27T09:04:44.607Z,32.30
2018-06-27T09:07:13.101Z,33.40
2018-06-27T09:09:42.169Z,33.05
2018-06-27T09:12:10.599Z,32.70
2018-06-27T09:14:39.061Z,33.57
2018-06-27T09:17:07.898Z,32.70
2018-06-27T09:19:36.330Z,32.96
2018-06-27T09:22:05.009Z,32.94
2018-06-27T09:24:34.174Z,33.00
2018-06-27T09:27:02.603Z,31.56
2018-06-27T09:29:31.017Z,31.61
2018-06-27T09:31:59.649Z,31.10
2018-06-27T09:34:28.082Z,30.78
2018-06-27T09:36:56.566Z,31.24
2018-06-27T09:39:26.386Z,31.27
2018-06-27T09:41:55.085Z,31.62
2018-06-27T09:44:24.042Z,31.91
2018-06-27T09:46:53.043Z,31.85
2018-06-27T09:49:21.842Z,30.55
2018-06-27T09:51:50.269Z,31.27
2018-06-27T09:54:19.098Z,31.04
2018-06-27T09:56:47.920Z,30.02
2018-06-27T09:59:16.329Z,30.51
2018-06-27T10:01:44.974Z,31.02
2018-06-27T10:04:13.733Z,30.50
2018-06-27T10:06:42.502Z,29.99
2018-06-27T10:09:11.492Z,29.45
2018-06-27T10:11:40.069Z,29.54
2018-06-27T10:14:08.498Z,29.08
2018-06-27T10:16:37.244Z,29.67
2018-06-27T10:19:06.028Z,29.19
2018-06-27T10:21:34.614Z,28.71
2018-06-27T10:24:03.283Z,28.87
2018-06-27T10:26:32.089Z,28.82
2018-06-27T10:29:00.628Z,28.25
2018-06-27T10:31:29.660Z,29.27
2018-06-27T10:33:58.125Z,28.54
2018-06-27T10:36:26.672Z,30.28
2018-06-27T10:38:55.139Z,31.28
2018-06-27T10:41:23.686Z,29.60
2018-06-27T10:43:52.649Z,30.11
2018-06-27T10:46:21.463Z,30.24
2018-06-27T10:48:49.916Z,29.46
2018-06-27T10:51:19.037Z,30.54
2018-06-27T10:53:47.651Z,32.62
2018-06-27T10:56:16.079Z,31.65
2018-06-27T10:58:44.687Z,30.76
2018-06-27T11:01:13.727Z,29.82
2018-06-27T11:03:42.118Z,28.93
2018-06-27T11:06:10.764Z,28.92
2018-06-27T11:08:39.670Z,30.37
2018-06-27T11:11:08.108Z,30.11
2018-06-27T11:13:36.849Z,30.69
2018-06-27T11:16:05.475Z,29.92
2018-06-27T11:18:33.987Z,28.69
2018-06-27T11:21:02.516Z,28.56
2018-06-27T11:23:31.097Z,29.21
2018-06-27T11:25:59.557Z,28.72
2018-06-27T11:28:28.258Z,28.52
2018-06-27T11:30:57.284Z,30.37
2018-06-27T11:33:25.746Z,29.58
2018-06-27T11:35:54.885Z,29.06
2018-06-27T11:38:23.463Z,29.60
2018-06-27T11:40:51.860Z,28.06
2018-06-27T11:43:20.765Z,27.40
2018-06-27T11:45:49.269Z,27.31
2018-06-27T11:48:17.693Z,27.73
2018-06-27T11:50:46.198Z,27.50
2018-06-27T11:53:14.729Z,27.34
2018-06-27T11:55:43.182Z,26.79
2018-06-27T11:58:12.140Z,25.01
2018-06-27T12:00:40.652Z,27.00
2018-06-27T12:03:09.118Z,26.45
2018-06-27T12:05:37.992Z,27.27
2018-06-27T12:08:07.047Z,27.85
2018-06-27T12:10:35.814Z,27.28
2018-06-27T12:13:04.428Z,27.71
2018-06-27T12:15:33.906Z,26.85
2018-06-27T12:18:02.379Z,27.76
2018-06-27T12:20:30.820Z,26.74
2018-06-27T12:22:59.582Z,27.63
2018-06-27T12:25:28.038Z,27.78
2018-06-27T12:27:56.611Z,26.23
2018-06-27T12:30:25.753Z,25.39
2018-06-27T12:32:54.451Z,24.84
2018-06-27T12:35:23.245Z,24.25
2018-06-27T12:37:52.394Z,25.06
2018-06-27T12:40:21.865Z,24.88
2018-06-27T12:42:50.294Z,25.12
2018-06-27T12:45:18.976Z,24.03
2018-06-27T12:47:47.753Z,23.36
2018-06-27T12:50:16.279Z,23.26
2018-06-27T12:52:44.871Z,23.25
2018-06-27T12:55:14.076Z,24.01
2018-06-27T12:57:42.684Z,24.59
2018-06-27T13:00:11.595Z,25.43
2018-06-27T13:02:40.538Z,24.27
2018-06-27T13:05:09.747Z,24.15
2018-06-27T13:07:38.471Z,24.95
2018-06-27T13:10:08.193Z,25.71
2018-06-27T13:12:36.978Z,23.23
2018-06-27T13:15:06.652Z,23.25
2018-06-27T13:17:35.077Z,22.33
2018-06-27T13:20:03.670Z,22.21
2018-06-27T13:22:32.631Z,21.40
2018-06-27T13:25:01.086Z,21.15
2018-06-27T13:27:30.414Z,21.94
2018-06-27T13:29:58.895Z,21.99
2018-06-27T13:32:27.684Z,21.69
2018-06-27T13:34:57.140Z,21.65
2018-06-27T13:37:26.850Z,21.10
2018-06-27T13:39:55.870Z,21.83
2018-06-27T13:42:24.858Z,20.56
2018-06-27T13:44:53.597Z,20.27
2018-06-27T13:47:22.900Z,19.72
2018-06-27T13:49:51.398Z,19.59
2018-06-27T13:52:20.265Z,19.71
2018-06-27T13:54:53.945Z,19.44
2018-06-27T13:57:22.864Z,19.32
2018-06-27T13:59:51.382Z,19.34
2018-06-27T14:02:20.255Z,19.22
2018-06-27T14:04:48.787Z,19.64
2018-06-27T14:07:17.237Z,19.40
2018-06-27T14:09:45.670Z,19.21
2018-06-27T14:12:14.963Z,19.51
2018-06-27T14:14:43.566Z,20.44
2018-06-27T14:17:12.014Z,21.32
2018-06-27T14:19:40.572Z,22.29
2018-06-27T14:22:09.705Z,22.38
2018-06-27T14:24:38.730Z,23.06
2018-06-27T14:27:08.114Z,22.97
2018-06-27T14:29:37.483Z,22.97
2018-06-27T14:32:06.037Z,22.60
2018-06-27T14:34:35.570Z,23.00
2018-06-27T14:37:04.155Z,23.18
2018-06-27T14:39:32.565Z,23.01
2018-06-27T14:42:01.346Z,23.36
2018-06-27T14:44:30.101Z,23.25
2018-06-27T14:46:58.518Z,22.46
2018-06-27T14:49:27.422Z,22.96
2018-06-27T14:51:56.957Z,23.49
2018-06-27T14:54:25.446Z,23.42
2018-06-27T14:56:53.948Z,23.95
2018-06-27T14:59:22.483Z,23.03
2018-06-27T15:01:50.930Z,23.59
2018-06-27T15:04:25.939Z,23.69
2018-06-27T15:06:54.698Z,22.96
2018-06-27T15:09:23.137Z,23.06
2018-06-27T15:11:51.730Z,23.05
2018-06-27T15:14:20.785Z,23.20
2018-06-27T15:16:49.445Z,23.49
2018-06-27T15:19:18.986Z,23.06
2018-06-27T15:21:48.404Z,24.15
2018-06-27T15:24:17.138Z,23.26
2018-06-27T15:26:46.069Z,22.97
2018-06-27T15:29:15.069Z,22.83
2018-06-27T15:31:43.589Z,23.03
2018-06-27T15:34:12.144Z,22.87
2018-06-27T15:36:41.250Z,22.79
2018-06-27T15:39:10.843Z,22.48
2018-06-27T15:41:39.603Z,23.07
2018-06-27T15:44:08.418Z,23.21
2018-06-27T15:46:37.275Z,23.02
2018-06-27T15:49:07.573Z,23.19
2018-06-27T15:51:36.142Z,23.93
2018-06-27T15:54:04.602Z,24.12
2018-06-27T15:56:33.175Z,24.49
2018-06-27T15:59:02.013Z,24.47
2018-06-27T16:01:31.512Z,23.86
2018-06-27T16:04:00.013Z,24.15
2018-06-27T16:06:28.727Z,23.64
2018-06-27T16:08:57.194Z,23.85
2018-06-27T16:11:25.795Z,23.84
2018-06-27T16:13:54.589Z,24.46
2018-06-27T16:16:23.037Z,24.37
2018-06-27T16:18:51.757Z,23.81
2018-06-27T16:21:20.850Z,24.00
2018-06-27T16:23:49.322Z,24.92
2018-06-27T16:26:17.875Z,24.76
2018-06-27T16:28:46.656Z,25.23
2018-06-27T16:31:15.082Z,25.59
2018-06-27T16:33:43.971Z,25.88
2018-06-27T16:36:12.658Z,26.02
2018-06-27T16:38:41.446Z,25.85
2018-06-27T16:41:09.988Z,26.42
2018-06-27T16:43:38.467Z,26.75
2018-06-27T16:46:06.958Z,26.17
2018-06-27T16:48:35.402Z,26.97
2018-06-27T16:51:04.049Z,27.04
2018-06-27T16:53:32.470Z,27.00
2018-06-27T16:56:01.120Z,27.54
2018-06-27T16:58:29.675Z,27.51
2018-06-27T17:00:58.237Z,28.40
2018-06-27T17:03:27.135Z,29.57
2018-06-27T17:05:55.993Z,30.84
2018-06-27T17:08:24.454Z,31.25
2018-06-27T17:10:53.501Z,32.59
2018-06-27T17:13:21.947Z,33.00
2018-06-27T17:15:50.455Z,33.41
2018-06-27T17:18:19.263Z,33.92
2018-06-27T17:20:48.190Z,35.20
2018-06-27T17:23:16.980Z,35.48
2018-06-27T17:25:45.670Z,35.86
2018-06-27T17:28:14.094Z,36.91
2018-06-27T17:30:43.418Z,36.95
2018-06-27T17:33:12.510Z,37.89
2018-06-27T17:35:40.967Z,38.20
2018-06-27T17:38:09.551Z,38.76
2018-06-27T17:40:38.885Z,38.87
2018-06-27T17:43:07.340Z,38.80
2018-06-27T17:45:35.806Z,39.12
2018-06-27T17:48:04.695Z,39.38
2018-06-27T17:50:33.146Z,39.67
2018-06-27T17:53:01.974Z,40.44
2018-06-27T17:55:30.625Z,40.33
2018-06-27T17:57:59.238Z,40.80
2018-06-27T18:00:27.683Z,41.27
2018-06-27T18:02:57.286Z,41.11
2018-06-27T18:05:26.042Z,41.22
2018-06-27T18:07:54.466Z,41.85
2018-06-27T18:10:23.745Z,42.15
2018-06-27T18:12:52.818Z,41.96
2018-06-27T18:15:21.273Z,42.83
2018-06-27T18:17:49.852Z,42.89
2018-06-27T18:20:18.340Z,42.63
2018-06-27T18:22:47.081Z,42.67
2018-06-27T18:25:15.659Z,43.03
2018-06-27T18:27:44.252Z,43.37
2018-06-27T18:30:13.318Z,43.73
2018-06-27T18:32:41.906Z,43.99
2018-06-27T18:35:10.609Z,44.07
2018-06-27T18:37:39.376Z,44.18
2018-06-27T18:40:08.746Z,44.04
2018-06-27T18:42:37.959Z,44.25
2018-06-27T18:45:07.178Z,44.48
2018-06-27T18:47:35.667Z,44.73
2018-06-27T18:50:04.278Z,44.76
2018-06-27T18:52:32.738Z,45.18
2018-06-27T18:55:01.222Z,45.31
2018-06-27T18:57:29.814Z,45.57
2018-06-27T18:59:58.257Z,45.59
2018-06-27T19:02:26.823Z,45.81
2018-06-27T19:04:55.626Z,46.08
2018-06-27T19:07:25.101Z,46.13
2018-06-27T19:09:53.574Z,46.45
2018-06-27T19:12:22.275Z,46.63
2018-06-27T19:14:51.145Z,46.87
2018-06-27T19:17:19.814Z,47.31
2018-06-27T19:19:48.277Z,47.47
2018-06-27T19:22:16.824Z,47.47
2018-06-27T19:24:45.717Z,47.51
2018-06-27T19:27:14.271Z,47.55
2018-06-27T19:29:43.029Z,47.60
2018-06-27T19:32:11.575Z,47.97
2018-06-27T19:34:39.990Z,47.85
2018-06-27T19:37:08.829Z,47.94
2018-06-27T19:39:38.600Z,48.19
2018-06-27T19:42:07.042Z,48.29
2018-06-27T19:44:36.290Z,48.53
2018-06-27T19:47:04.996Z,48.77
2018-06-27T19:49:33.373Z,48.99
2018-06-27T19:52:02.274Z,49.39
2018-06-27T19:54:30.805Z,49.88
2018-06-27T19:56:59.301Z,49.83
2018-06-27T19:59:27.822Z,50.15
2018-06-27T20:01:58.038Z,50.59
2018-06-27T20:04:26.558Z,51.01
2018-06-27T20:06:54.974Z,51.25
2018-06-27T20:09:23.453Z,51.52
2018-06-27T20:11:51.889Z,51.42
2018-06-27T20:14:20.437Z,51.98
2018-06-27T20:16:49.206Z,51.95
2018-06-27T20:19:17.760Z,52.66
2018-06-27T20:21:46.402Z,52.28
2018-06-27T20:24:21.491Z,52.74
2018-06-27T20:26:50.497Z,52.34
2018-06-27T20:29:18.941Z,52.54
2018-06-27T20:31:47.926Z,52.20
2018-06-27T20:34:16.581Z,52.27
2018-06-27T20:36:45.049Z,51.57
2018-06-27T20:39:13.930Z,52.32
2018-06-27T20:41:42.730Z,51.88
2018-06-27T20:44:11.158Z,51.44
2018-06-27T20:46:39.977Z,51.83
2018-06-27T20:49:11.341Z,51.60
2018-06-27T20:51:40.370Z,51.83
2018-06-27T20:54:09.362Z,52.30
2018-06-27T20:56:37.820Z,53.00
2018-06-27T20:59:06.394Z,52.83
2018-06-27T21:01:35.679Z,52.25
2018-06-27T21:04:04.266Z,51.88
2018-06-27T21:06:32.819Z,51.52
2018-06-27T21:09:01.495Z,50.88
2018-06-27T21:11:29.982Z,50.35
2018-06-27T21:13:58.426Z,49.48
2018-06-27T21:16:27.462Z,49.20
2018-06-27T21:18:56.718Z,48.29
2018-06-27T21:21:25.222Z,48.28
2018-06-27T21:23:54.517Z,47.76
2018-06-27T21:26:23.118Z,47.03
2018-06-27T21:28:52.149Z,46.96
2018-06-27T21:31:21.414Z,46.96
2018-06-27T21:33:49.914Z,47.20
2018-06-27T21:36:18.837Z,46.75
2018-06-27T21:38:47.522Z,46.69
2018-06-27T21:41:16.950Z,46.93
2018-06-27T21:43:45.475Z,47.23
2018-06-27T21:46:14.126Z,47.03
2018-06-27T21:48:42.742Z,47.01
2018-06-27T21:51:11.278Z,47.04
2018-06-27T21:53:40.410Z,47.62
2018-06-27T21:56:08.885Z,47.53
2018-06-27T21:58:37.358Z,47.58
2018-06-27T22:01:05.986Z,47.84
2018-06-27T22:03:34.417Z,48.46
2018-06-27T22:06:02.925Z,48.08
2018-06-27T22:08:31.997Z,48.30
2018-06-27T22:11:00.459Z,48.60
2018-06-27T22:13:28.938Z,48.65
2018-06-27T22:15:57.635Z,49.08
2018-06-27T22:18:26.082Z,49.19
2018-06-27T22:20:54.626Z,49.42
2018-06-27T22:23:23.210Z,49.10
2018-06-27T22:25:51.897Z,49.04
2018-06-27T22:28:20.393Z,49.05
2018-06-27T22:30:49.562Z,49.07
2018-06-27T22:33:18.414Z,49.15
2018-06-27T22:35:46.882Z,49.70
2018-06-27T22:38:15.618Z,49.42
2018-06-27T22:40:44.077Z,50.06
2018-06-27T22:43:12.534Z,49.89
2018-06-27T22:45:41.446Z,49.49
2018-06-27T22:48:09.967Z,49.72
2018-06-27T22:50:38.686Z,50.23
2018-06-27T22:53:07.209Z,49.93
2018-06-27T22:55:35.960Z,50.07
2018-06-27T22:58:04.585Z,49.88
2018-06-27T23:00:33.474Z,49.89
2018-06-27T23:03:01.958Z,49.61
2018-06-27T23:05:31.482Z,50.17
2018-06-27T23:08:00.023Z,50.11
2018-06-27T23:10:28.571Z,50.16
2018-06-27T23:12:57.941Z,49.67
2018-06-27T23:15:26.818Z,49.89
2018-06-27T23:17:56.477Z,49.58
2018-06-27T23:20:25.127Z,49.37
2018-06-27T23:22:53.831Z,49.51
2018-06-27T23:25:22.271Z,49.44
2018-06-27T23:27:50.993Z,49.32
2018-06-27T23:30:19.865Z,49.25
2018-06-27T23:32:49.254Z,48.83
2018-06-27T23:35:17.844Z,48.78
2018-06-27T23:37:46.382Z,48.76
2018-06-27T23:40:14.874Z,48.77
2018-06-27T23:42:43.769Z,48.67
2018-06-27T23:45:12.357Z,48.85
2018-06-27T23:47:40.793Z,48.87
2018-06-27T23:50:09.390Z,48.73
2018-06-27T23:52:38.478Z,48.95
2018-06-27T23:55:07.601Z,48.67
2018-06-27T23:57:36.453Z,48.62
